< < Back
Terminal Aerodrome Forecast


Current Version              Previous Versions:   1  2  3  4  5  6  7  8  9  

Terminal Aerodrome Forecast

718
FTUS42 KCHS 231100
TAFSAV
TAF
KSAV 231129Z 2312/2412 07008KT 2SM RA BR SCT003 BKN006
      WS020/14040KT
      TEMPO 2312/2315 1SM +RA BR BKN003
     FM231600 18015G25KT P6SM VCSH SCT005 BKN020
     FM240100 19012G20KT 4SM -TSRA BR BKN020CB
     FM240400 20008KT 3SM BR BKN006=

Latest METAR

724
SAUS80 KWBC 231900
MTRSAV
METAR KSAV 231853Z 13007KT 1 1/2SM BR SCT003 BKN005 OVC010 21/19 A2990
RMK AO2 RAE02 SLP125 P0000 T02060189


USA.gov is the U.S. government's official web portal to all federal, state and local government web resources and services.